Acton, MT

3:04 PM MDT on September 01, 2014 (GMT -0600)
Ironwood MT | Change Station
CLOSE
Current Station
Personal Weather Station
Location: Billings, MT
Elevation: 3504 ft
Nearby Weather Stations

Elev 3504 ft 45.82 °N, 108.66 °W | Updated 5 seconds ago

Partly Cloudy
Partly Cloudy
70.9 °F
Feels Like 76 °F
N
4.4
Wind Variable Wind from WNW
Gusts 11.0 mph

Today
High -- | Low -- °F
--% Chance of Precip.
Yesterday
High -- | Low -- °F
Precip. -- in
6:35 AM 7:52 PM
Waxing Crescent, 44% visible
Pressure 29.88 in
Visibility 10.0 miles
Clouds Scattered Clouds 9000 ft
Heat Index 76 °F
Dew Point 36 °F
Humidity 27%
Rainfall 0.00 in
Snow Depth Not available.
UV 6 out of 12
Pollen 7.20 out of 12
Air Quality Not available.
Flu Activity Not available.
METAR KBIL 012053Z 27012KT 10SM SCT090 22/00 A2995 RMK AO2 SLP119 T02170000 58010

More Conditions Fewer Conditions

Pressure 29.88 in
Visibility 10.0 miles
Clouds Scattered Clouds 9000 ft
Heat Index 76 °F
Dew Point 36 °F
Humidity 27%
Rainfall 0.00 in
Snow Depth Not available.
UV 6 out of 12
Pollen 7.20 out of 12
Air Quality Not available.
Flu Activity Not available.
METAR KBIL 012053Z 27012KT 10SM SCT090 22/00 A2995 RMK AO2 SLP119 T02170000 58010

More Conditions Fewer Conditions

10-Day Weather Forecast

Almanac

Astronomy

Sep. 01, 2014 Rise Set
Actual Time 6:35 AM MDT 7:52 PM MDT
Civil Twilight 6:04 AM MDT 8:23 PM MDT
Nautical Twilight 5:27 AM MDT 9:00 PM MDT
Astronomical Twilight 4:47 AM MDT 9:40 PM MDT
Moon 1:46 PM MDT 11:34 PM MDT
Length of Visible Light 14h 18m
Length of Day
13h 17m
Tomorrow will be 3m 8s shorter.
Waxing Crescent, 44% of the Moon is Illuminated
Today
Waxing Crescent
Sep 2
First Quarter
Sep 8
Full
Sep 15
Last Quarter
Sep 24
New

Today's Extremes

State Highs State Lows

Community

WunderPhotos

Upload Photos

1,749,407 photos uploaded!

WunderBlogs® & News

Nearby

Snow Depth

Station Depth Elevation
Cole Creek 0 in 7850 ft
Crystal Lake 0 in 6050 ft
White Mill 2 in 8700 ft
Porcupine 0 in 6500 ft
Monument Peak 0 in 8850 ft

Earthquake Activity

City Distance Mag. Time & Date
No recent earthquake activity has been reported nearby.
Minimum magnitude displayed is 2.5.

Coastal Water Temperatures

Place Temperature
No Stations Reporting

Nearby Weather Stations